sensor_id;sensor_type;location;lat;lon;timestamp;temperature;humidity
61912;DHT22;49973;52.084;5.412;2023-06-14T00:00:07;18.80;65.20
61912;DHT22;49973;52.084;5.412;2023-06-14T00:02:38;18.70;65.20
61912;DHT22;49973;52.084;5.412;2023-06-14T00:05:08;18.70;65.30
61912;DHT22;49973;52.084;5.412;2023-06-14T00:07:40;18.70;65.40
61912;DHT22;49973;52.084;5.412;2023-06-14T00:10:11;18.70;65.50
61912;DHT22;49973;52.084;5.412;2023-06-14T00:12:41;18.70;65.60
61912;DHT22;49973;52.084;5.412;2023-06-14T00:15:09;18.70;65.70
61912;DHT22;49973;52.084;5.412;2023-06-14T00:17:39;18.70;65.80
61912;DHT22;49973;52.084;5.412;2023-06-14T00:20:10;18.70;65.90
61912;DHT22;49973;52.084;5.412;2023-06-14T00:22:39;18.60;66.00
61912;DHT22;49973;52.084;5.412;2023-06-14T00:25:08;18.60;66.00
61912;DHT22;49973;52.084;5.412;2023-06-14T00:27:55;18.50;66.00
61912;DHT22;49973;52.084;5.412;2023-06-14T00:30:24;18.50;66.20
61912;DHT22;49973;52.084;5.412;2023-06-14T00:32:54;18.50;66.20
61912;DHT22;49973;52.084;5.412;2023-06-14T00:35:25;18.50;66.30
61912;DHT22;49973;52.084;5.412;2023-06-14T00:37:53;18.40;66.30
61912;DHT22;49973;52.084;5.412;2023-06-14T00:40:23;18.40;66.50
61912;DHT22;49973;52.084;5.412;2023-06-14T00:42:51;18.40;66.60
61912;DHT22;49973;52.084;5.412;2023-06-14T00:45:20;18.30;66.50
61912;DHT22;49973;52.084;5.412;2023-06-14T00:47:50;18.30;66.70
61912;DHT22;49973;52.084;5.412;2023-06-14T00:50:24;18.30;66.90
61912;DHT22;49973;52.084;5.412;2023-06-14T00:52:53;18.20;66.80
61912;DHT22;49973;52.084;5.412;2023-06-14T00:55:22;18.10;66.70
61912;DHT22;49973;52.084;5.412;2023-06-14T00:57:51;18.10;66.90
61912;DHT22;49973;52.084;5.412;2023-06-14T01:00:20;18.20;67.20
61912;DHT22;49973;52.084;5.412;2023-06-14T01:02:48;18.10;67.20
61912;DHT22;49973;52.084;5.412;2023-06-14T01:05:18;18.00;67.30
61912;DHT22;49973;52.084;5.412;2023-06-14T01:07:59;18.10;67.50
61912;DHT22;49973;52.084;5.412;2023-06-14T01:10:35;17.90;67.50
61912;DHT22;49973;52.084;5.412;2023-06-14T01:13:10;17.90;67.60
61912;DHT22;49973;52.084;5.412;2023-06-14T01:15:41;17.80;67.60
61912;DHT22;49973;52.084;5.412;2023-06-14T01:18:11;17.70;67.60
61912;DHT22;49973;52.084;5.412;2023-06-14T01:20:45;17.70;67.70
61912;DHT22;49973;52.084;5.412;2023-06-14T01:23:19;17.60;68.40
61912;DHT22;49973;52.084;5.412;2023-06-14T01:25:49;17.50;67.80
61912;DHT22;49973;52.084;5.412;2023-06-14T01:28:21;17.60;68.00
61912;DHT22;49973;52.084;5.412;2023-06-14T01:30:51;17.40;67.80
61912;DHT22;49973;52.084;5.412;2023-06-14T01:33:21;17.40;68.10
61912;DHT22;49973;52.084;5.412;2023-06-14T01:35:52;17.30;68.00
61912;DHT22;49973;52.084;5.412;2023-06-14T01:38:24;17.30;68.20
61912;DHT22;49973;52.084;5.412;2023-06-14T01:40:54;17.20;68.30
61912;DHT22;49973;52.084;5.412;2023-06-14T01:43:26;17.10;68.20
61912;DHT22;49973;52.084;5.412;2023-06-14T01:45:57;17.10;68.20
61912;DHT22;49973;52.084;5.412;2023-06-14T01:48:27;17.00;68.40
61912;DHT22;49973;52.084;5.412;2023-06-14T01:50:56;17.00;68.40
61912;DHT22;49973;52.084;5.412;2023-06-14T01:53:26;16.80;68.20
61912;DHT22;49973;52.084;5.412;2023-06-14T01:55:54;16.80;68.40
61912;DHT22;49973;52.084;5.412;2023-06-14T01:58:23;16.80;68.50
61912;DHT22;49973;52.084;5.412;2023-06-14T02:00:53;16.70;68.60
61912;DHT22;49973;52.084;5.412;2023-06-14T02:03:24;16.70;68.60
61912;DHT22;49973;52.084;5.412;2023-06-14T02:05:53;16.60;69.40
61912;DHT22;49973;52.084;5.412;2023-06-14T02:08:23;16.60;68.80
61912;DHT22;49973;52.084;5.412;2023-06-14T02:10:53;16.50;68.80
61912;DHT22;49973;52.084;5.412;2023-06-14T02:13:22;16.40;68.80
61912;DHT22;49973;52.084;5.412;2023-06-14T02:15:51;16.40;69.00
61912;DHT22;49973;52.084;5.412;2023-06-14T02:18:22;16.40;69.00
61912;DHT22;49973;52.084;5.412;2023-06-14T02:20:51;16.30;69.00
61912;DHT22;49973;52.084;5.412;2023-06-14T02:23:19;16.30;69.10
61912;DHT22;49973;52.084;5.412;2023-06-14T02:25:48;16.20;69.10
61912;DHT22;49973;52.084;5.412;2023-06-14T02:28:18;16.20;69.20
61912;DHT22;49973;52.084;5.412;2023-06-14T02:30:47;16.10;69.20
61912;DHT22;49973;52.084;5.412;2023-06-14T02:33:16;16.10;69.20
61912;DHT22;49973;52.084;5.412;2023-06-14T02:35:45;16.00;69.30
61912;DHT22;49973;52.084;5.412;2023-06-14T02:38:14;15.90;69.30
61912;DHT22;49973;52.084;5.412;2023-06-14T02:40:43;16.00;69.50
61912;DHT22;49973;52.084;5.412;2023-06-14T02:43:12;15.70;69.30
61912;DHT22;49973;52.084;5.412;2023-06-14T02:45:42;15.80;69.60
61912;DHT22;49973;52.084;5.412;2023-06-14T02:48:10;15.70;69.60
61912;DHT22;49973;52.084;5.412;2023-06-14T02:50:40;15.70;69.70
61912;DHT22;49973;52.084;5.412;2023-06-14T02:53:09;15.60;69.70
61912;DHT22;49973;52.084;5.412;2023-06-14T02:55:39;15.60;69.80
61912;DHT22;49973;52.084;5.412;2023-06-14T02:58:08;15.70;70.00
61912;DHT22;49973;52.084;5.412;2023-06-14T03:00:37;15.50;69.90
61912;DHT22;49973;52.084;5.412;2023-06-14T03:03:10;15.50;70.00
61912;DHT22;49973;52.084;5.412;2023-06-14T03:05:47;15.40;70.10
61912;DHT22;49973;52.084;5.412;2023-06-14T03:08:20;15.40;70.20
61912;DHT22;49973;52.084;5.412;2023-06-14T03:10:55;15.40;70.20
61912;DHT22;49973;52.084;5.412;2023-06-14T03:13:25;15.40;70.40
61912;DHT22;49973;52.084;5.412;2023-06-14T03:15:54;15.30;70.40
61912;DHT22;49973;52.084;5.412;2023-06-14T03:18:25;15.20;70.40
61912;DHT22;49973;52.084;5.412;2023-06-14T03:20:56;15.30;70.70
61912;DHT22;49973;52.084;5.412;2023-06-14T03:23:27;15.20;70.70
61912;DHT22;49973;52.084;5.412;2023-06-14T03:25:56;15.10;70.80
61912;DHT22;49973;52.084;5.412;2023-06-14T03:28:24;15.20;71.00
61912;DHT22;49973;52.084;5.412;2023-06-14T03:30:55;15.10;70.90
61912;DHT22;49973;52.084;5.412;2023-06-14T03:33:26;15.10;71.00
61912;DHT22;49973;52.084;5.412;2023-06-14T03:35:55;15.00;71.10
61912;DHT22;49973;52.084;5.412;2023-06-14T03:38:24;15.00;71.20
61912;DHT22;49973;52.084;5.412;2023-06-14T03:40:53;15.00;71.20
61912;DHT22;49973;52.084;5.412;2023-06-14T03:43:22;15.00;71.30
61912;DHT22;49973;52.084;5.412;2023-06-14T03:45:51;15.00;71.40
61912;DHT22;49973;52.084;5.412;2023-06-14T03:48:22;14.90;71.40
61912;DHT22;49973;52.084;5.412;2023-06-14T03:50:53;15.00;71.50
61912;DHT22;49973;52.084;5.412;2023-06-14T03:53:26;15.00;71.70
61912;DHT22;49973;52.084;5.412;2023-06-14T03:55:56;15.00;71.70
61912;DHT22;49973;52.084;5.412;2023-06-14T03:58:35;15.00;71.80
61912;DHT22;49973;52.084;5.412;2023-06-14T04:01:04;15.20;72.10
61912;DHT22;49973;52.084;5.412;2023-06-14T04:03:34;15.00;72.00
61912;DHT22;49973;52.084;5.412;2023-06-14T04:06:05;15.10;72.20
61912;DHT22;49973;52.084;5.412;2023-06-14T04:08:35;15.10;72.30
61912;DHT22;49973;52.084;5.412;2023-06-14T04:11:03;15.10;72.40
61912;DHT22;49973;52.084;5.412;2023-06-14T04:13:32;15.20;72.60
61912;DHT22;49973;52.084;5.412;2023-06-14T04:16:02;15.20;72.70
61912;DHT22;49973;52.084;5.412;2023-06-14T04:18:34;15.30;71.90
61912;DHT22;49973;52.084;5.412;2023-06-14T04:21:04;15.30;72.90
61912;DHT22;49973;52.084;5.412;2023-06-14T04:23:33;15.50;73.20
61912;DHT22;49973;52.084;5.412;2023-06-14T04:30:15;15.60;73.60
61912;DHT22;49973;52.084;5.412;2023-06-14T04:32:49;15.70;73.30
61912;DHT22;49973;52.084;5.412;2023-06-14T04:35:21;15.80;73.50
61912;DHT22;49973;52.084;5.412;2023-06-14T04:37:52;16.00;73.90
61912;DHT22;49973;52.084;5.412;2023-06-14T04:40:22;16.00;73.90
61912;DHT22;49973;52.084;5.412;2023-06-14T04:42:51;16.20;74.10
61912;DHT22;49973;52.084;5.412;2023-06-14T04:45:20;16.20;74.20
61912;DHT22;49973;52.084;5.412;2023-06-14T04:47:50;16.30;74.20
61912;DHT22;49973;52.084;5.412;2023-06-14T04:50:27;16.40;74.30
61912;DHT22;49973;52.084;5.412;2023-06-14T04:52:58;16.50;74.50
61912;DHT22;49973;52.084;5.412;2023-06-14T04:55:28;16.60;74.70
61912;DHT22;49973;52.084;5.412;2023-06-14T04:57:57;16.70;74.70
61912;DHT22;49973;52.084;5.412;2023-06-14T05:00:28;16.80;74.90
61912;DHT22;49973;52.084;5.412;2023-06-14T05:02:57;16.90;75.00
61912;DHT22;49973;52.084;5.412;2023-06-14T05:05:26;17.00;75.20
61912;DHT22;49973;52.084;5.412;2023-06-14T05:07:55;17.10;75.30
61912;DHT22;49973;52.084;5.412;2023-06-14T05:10:26;17.30;75.60
61912;DHT22;49973;52.084;5.412;2023-06-14T05:12:54;17.30;75.60
61912;DHT22;49973;52.084;5.412;2023-06-14T05:15:24;17.40;75.70
61912;DHT22;49973;52.084;5.412;2023-06-14T05:17:54;17.60;75.90
61912;DHT22;49973;52.084;5.412;2023-06-14T05:20:23;17.60;76.00
61912;DHT22;49973;52.084;5.412;2023-06-14T05:22:53;17.70;76.10
61912;DHT22;49973;52.084;5.412;2023-06-14T05:25:25;17.80;76.30
61912;DHT22;49973;52.084;5.412;2023-06-14T05:27:55;17.90;76.40
61912;DHT22;49973;52.084;5.412;2023-06-14T05:30:24;18.10;76.60
61912;DHT22;49973;52.084;5.412;2023-06-14T05:32:53;18.20;76.70
61912;DHT22;49973;52.084;5.412;2023-06-14T05:35:22;18.20;76.90
61912;DHT22;49973;52.084;5.412;2023-06-14T05:37:56;18.40;77.00
61912;DHT22;49973;52.084;5.412;2023-06-14T05:40:26;18.50;77.10
61912;DHT22;49973;52.084;5.412;2023-06-14T05:42:55;18.80;77.50
61912;DHT22;49973;52.084;5.412;2023-06-14T05:45:23;18.80;77.40
61912;DHT22;49973;52.084;5.412;2023-06-14T05:47:52;18.90;77.60
61912;DHT22;49973;52.084;5.412;2023-06-14T05:50:21;19.10;77.80
61912;DHT22;49973;52.084;5.412;2023-06-14T05:52:50;19.20;77.90
61912;DHT22;49973;52.084;5.412;2023-06-14T05:55:19;19.30;78.20
61912;DHT22;49973;52.084;5.412;2023-06-14T05:57:49;19.50;78.90
61912;DHT22;49973;52.084;5.412;2023-06-14T06:00:18;19.60;80.30
61912;DHT22;49973;52.084;5.412;2023-06-14T06:02:47;19.90;82.30
61912;DHT22;49973;52.084;5.412;2023-06-14T06:05:16;20.10;84.30
61912;DHT22;49973;52.084;5.412;2023-06-14T06:07:46;20.50;86.40
61912;DHT22;49973;52.084;5.412;2023-06-14T06:10:15;21.10;89.00
61912;DHT22;49973;52.084;5.412;2023-06-14T06:12:44;22.00;90.50
61912;DHT22;49973;52.084;5.412;2023-06-14T06:15:16;23.00;91.00
61912;DHT22;49973;52.084;5.412;2023-06-14T06:17:45;23.80;91.20
61912;DHT22;49973;52.084;5.412;2023-06-14T06:20:23;24.50;91.20
61912;DHT22;49973;52.084;5.412;2023-06-14T06:22:56;25.10;91.00
61912;DHT22;49973;52.084;5.412;2023-06-14T06:25:26;25.50;90.60
61912;DHT22;49973;52.084;5.412;2023-06-14T06:27:55;26.00;90.30
61912;DHT22;49973;52.084;5.412;2023-06-14T06:30:26;26.50;89.60
61912;DHT22;49973;52.084;5.412;2023-06-14T06:32:54;26.80;88.10
61912;DHT22;49973;52.084;5.412;2023-06-14T06:35:24;26.90;86.60
61912;DHT22;49973;52.084;5.412;2023-06-14T06:37:52;26.70;85.60
61912;DHT22;49973;52.084;5.412;2023-06-14T06:40:21;26.40;85.00
61912;DHT22;49973;52.084;5.412;2023-06-14T06:42:50;26.10;85.00
61912;DHT22;49973;52.084;5.412;2023-06-14T06:45:20;26.10;85.00
61912;DHT22;49973;52.084;5.412;2023-06-14T06:47:53;26.00;84.60
61912;DHT22;49973;52.084;5.412;2023-06-14T06:50:22;26.00;84.10
61912;DHT22;49973;52.084;5.412;2023-06-14T06:52:52;25.80;83.60
61912;DHT22;49973;52.084;5.412;2023-06-14T06:55:21;25.60;83.40
61912;DHT22;49973;52.084;5.412;2023-06-14T06:57:50;25.50;83.50
61912;DHT22;49973;52.084;5.412;2023-06-14T07:00:20;25.70;83.50
61912;DHT22;49973;52.084;5.412;2023-06-14T07:02:49;26.00;82.80
61912;DHT22;49973;52.084;5.412;2023-06-14T07:05:20;26.10;81.70
61912;DHT22;49973;52.084;5.412;2023-06-14T07:07:48;26.00;80.40
61912;DHT22;49973;52.084;5.412;2023-06-14T07:10:17;25.70;79.70
61912;DHT22;49973;52.084;5.412;2023-06-14T07:12:46;25.50;79.30
61912;DHT22;49973;52.084;5.412;2023-06-14T07:15:14;25.30;79.20
61912;DHT22;49973;52.084;5.412;2023-06-14T07:17:44;25.20;79.20
61912;DHT22;49973;52.084;5.412;2023-06-14T07:20:13;25.10;79.00
61912;DHT22;49973;52.084;5.412;2023-06-14T07:22:44;25.00;78.80
61912;DHT22;49973;52.084;5.412;2023-06-14T07:25:13;24.90;78.60
61912;DHT22;49973;52.084;5.412;2023-06-14T07:27:44;24.90;78.50
61912;DHT22;49973;52.084;5.412;2023-06-14T07:30:13;24.90;78.30
61912;DHT22;49973;52.084;5.412;2023-06-14T07:32:42;24.90;78.10
61912;DHT22;49973;52.084;5.412;2023-06-14T07:35:10;24.80;77.90
61912;DHT22;49973;52.084;5.412;2023-06-14T07:37:40;24.80;77.80
61912;DHT22;49973;52.084;5.412;2023-06-14T07:40:11;24.90;77.90
61912;DHT22;49973;52.084;5.412;2023-06-14T07:42:40;24.90;77.80
61912;DHT22;49973;52.084;5.412;2023-06-14T07:45:09;25.00;77.70
61912;DHT22;49973;52.084;5.412;2023-06-14T07:47:38;25.00;77.80
61912;DHT22;49973;52.084;5.412;2023-06-14T07:50:07;25.10;77.80
61912;DHT22;49973;52.084;5.412;2023-06-14T07:52:37;25.20;77.90
61912;DHT22;49973;52.084;5.412;2023-06-14T07:55:06;25.40;78.00
61912;DHT22;49973;52.084;5.412;2023-06-14T07:57:37;25.70;78.10
61912;DHT22;49973;52.084;5.412;2023-06-14T08:00:07;25.90;77.90
61912;DHT22;49973;52.084;5.412;2023-06-14T08:02:40;25.90;77.60
61912;DHT22;49973;52.084;5.412;2023-06-14T08:05:10;26.00;77.60
61912;DHT22;49973;52.084;5.412;2023-06-14T08:07:39;26.00;77.50
61912;DHT22;49973;52.084;5.412;2023-06-14T08:10:09;26.10;77.40
61912;DHT22;49973;52.084;5.412;2023-06-14T08:12:39;26.10;77.50
61912;DHT22;49973;52.084;5.412;2023-06-14T08:15:08;26.20;77.50
61912;DHT22;49973;52.084;5.412;2023-06-14T08:17:42;26.50;77.80
61912;DHT22;49973;52.084;5.412;2023-06-14T08:20:12;26.90;78.30
61912;DHT22;49973;52.084;5.412;2023-06-14T08:22:40;27.30;78.10
61912;DHT22;49973;52.084;5.412;2023-06-14T08:25:10;27.70;77.80
61912;DHT22;49973;52.084;5.412;2023-06-14T08:27:41;27.90;77.20
61912;DHT22;49973;52.084;5.412;2023-06-14T08:30:11;27.90;76.50
61912;DHT22;49973;52.084;5.412;2023-06-14T08:32:40;27.80;76.40
61912;DHT22;49973;52.084;5.412;2023-06-14T08:35:08;27.80;76.10
61912;DHT22;49973;52.084;5.412;2023-06-14T08:37:38;27.80;75.80
61912;DHT22;49973;52.084;5.412;2023-06-14T08:40:17;27.70;75.40
61912;DHT22;49973;52.084;5.412;2023-06-14T08:42:51;27.60;75.20
61912;DHT22;49973;52.084;5.412;2023-06-14T08:45:20;27.50;75.10
61912;DHT22;49973;52.084;5.412;2023-06-14T08:47:53;27.50;75.20
61912;DHT22;49973;52.084;5.412;2023-06-14T08:50:26;27.50;75.10
61912;DHT22;49973;52.084;5.412;2023-06-14T08:52:59;27.50;75.00
61912;DHT22;49973;52.084;5.412;2023-06-14T08:55:31;27.50;75.10
61912;DHT22;49973;52.084;5.412;2023-06-14T08:58:05;27.60;74.90
61912;DHT22;49973;52.084;5.412;2023-06-14T09:00:36;27.60;74.70
61912;DHT22;49973;52.084;5.412;2023-06-14T09:03:06;27.60;74.50
61912;DHT22;49973;52.084;5.412;2023-06-14T09:05:41;27.70;74.40
61912;DHT22;49973;52.084;5.412;2023-06-14T09:08:11;27.70;74.20
61912;DHT22;49973;52.084;5.412;2023-06-14T09:10:40;27.60;74.10
61912;DHT22;49973;52.084;5.412;2023-06-14T09:13:10;27.70;74.20
61912;DHT22;49973;52.084;5.412;2023-06-14T09:15:40;27.80;74.30
61912;DHT22;49973;52.084;5.412;2023-06-14T09:18:09;27.90;74.10
61912;DHT22;49973;52.084;5.412;2023-06-14T09:20:38;28.00;73.90
61912;DHT22;49973;52.084;5.412;2023-06-14T09:23:06;28.00;73.80
61912;DHT22;49973;52.084;5.412;2023-06-14T09:25:42;28.10;73.80
61912;DHT22;49973;52.084;5.412;2023-06-14T09:28:13;28.10;73.60
61912;DHT22;49973;52.084;5.412;2023-06-14T09:30:42;28.10;73.70
61912;DHT22;49973;52.084;5.412;2023-06-14T09:33:16;28.10;73.80
61912;DHT22;49973;52.084;5.412;2023-06-14T09:35:45;28.10;73.60
61912;DHT22;49973;52.084;5.412;2023-06-14T09:38:14;28.20;73.50
61912;DHT22;49973;52.084;5.412;2023-06-14T09:40:43;28.30;73.50
61912;DHT22;49973;52.084;5.412;2023-06-14T09:43:13;28.30;73.30
61912;DHT22;49973;52.084;5.412;2023-06-14T09:45:42;28.50;73.20
61912;DHT22;49973;52.084;5.412;2023-06-14T09:48:13;28.50;73.00
61912;DHT22;49973;52.084;5.412;2023-06-14T09:50:46;28.60;72.80
61912;DHT22;49973;52.084;5.412;2023-06-14T09:53:16;28.60;72.80
61912;DHT22;49973;52.084;5.412;2023-06-14T09:55:47;28.70;72.60
61912;DHT22;49973;52.084;5.412;2023-06-14T09:58:20;28.80;72.70
61912;DHT22;49973;52.084;5.412;2023-06-14T10:00:51;28.90;72.60
61912;DHT22;49973;52.084;5.412;2023-06-14T10:03:23;28.90;72.10
61912;DHT22;49973;52.084;5.412;2023-06-14T10:05:53;29.00;72.00
61912;DHT22;49973;52.084;5.412;2023-06-14T10:08:25;29.00;71.90
61912;DHT22;49973;52.084;5.412;2023-06-14T10:10:55;29.10;71.70
61912;DHT22;49973;52.084;5.412;2023-06-14T10:13:26;29.10;72.30
61912;DHT22;49973;52.084;5.412;2023-06-14T10:16:03;29.20;71.30
61912;DHT22;49973;52.084;5.412;2023-06-14T10:18:41;29.20;71.20
61912;DHT22;49973;52.084;5.412;2023-06-14T10:21:18;29.30;71.40
61912;DHT22;49973;52.084;5.412;2023-06-14T10:23:50;29.40;71.30
61912;DHT22;49973;52.084;5.412;2023-06-14T10:26:20;29.50;71.30
61912;DHT22;49973;52.084;5.412;2023-06-14T10:28:58;29.70;71.30
61912;DHT22;49973;52.084;5.412;2023-06-14T10:31:42;29.80;71.00
61912;DHT22;49973;52.084;5.412;2023-06-14T10:34:12;29.80;70.70
61912;DHT22;49973;52.084;5.412;2023-06-14T10:36:42;29.80;70.60
61912;DHT22;49973;52.084;5.412;2023-06-14T10:39:15;29.90;70.40
61912;DHT22;49973;52.084;5.412;2023-06-14T10:41:52;29.90;70.10
61912;DHT22;49973;52.084;5.412;2023-06-14T10:44:42;29.90;70.00
61912;DHT22;49973;52.084;5.412;2023-06-14T10:47:21;29.90;69.80
61912;DHT22;49973;52.084;5.412;2023-06-14T10:49:51;30.00;69.60
61912;DHT22;49973;52.084;5.412;2023-06-14T10:52:22;30.00;69.50
61912;DHT22;49973;52.084;5.412;2023-06-14T10:55:08;29.90;69.30
61912;DHT22;49973;52.084;5.412;2023-06-14T10:57:44;30.00;69.40
61912;DHT22;49973;52.084;5.412;2023-06-14T11:00:22;30.10;69.40
61912;DHT22;49973;52.084;5.412;2023-06-14T11:03:17;30.20;69.20
61912;DHT22;49973;52.084;5.412;2023-06-14T11:05:52;30.30;69.00
61912;DHT22;49973;52.084;5.412;2023-06-14T11:08:33;30.40;69.10
61912;DHT22;49973;52.084;5.412;2023-06-14T11:11:06;30.50;69.00
61912;DHT22;49973;52.084;5.412;2023-06-14T11:13:38;30.50;68.60
61912;DHT22;49973;52.084;5.412;2023-06-14T11:16:12;30.50;68.40
61912;DHT22;49973;52.084;5.412;2023-06-14T11:18:41;30.50;68.00
61912;DHT22;49973;52.084;5.412;2023-06-14T11:21:10;30.40;67.90
61912;DHT22;49973;52.084;5.412;2023-06-14T11:23:39;30.30;67.80
61912;DHT22;49973;52.084;5.412;2023-06-14T11:26:08;30.40;67.90
61912;DHT22;49973;52.084;5.412;2023-06-14T11:28:38;30.40;67.80
61912;DHT22;49973;52.084;5.412;2023-06-14T11:31:08;30.60;67.90
61912;DHT22;49973;52.084;5.412;2023-06-14T11:33:39;30.70;67.60
61912;DHT22;49973;52.084;5.412;2023-06-14T11:36:08;30.80;67.60
61912;DHT22;49973;52.084;5.412;2023-06-14T11:38:38;30.80;67.30
61912;DHT22;49973;52.084;5.412;2023-06-14T11:41:06;30.80;67.20
61912;DHT22;49973;52.084;5.412;2023-06-14T11:43:35;30.80;67.10
61912;DHT22;49973;52.084;5.412;2023-06-14T11:46:11;30.80;66.90
61912;DHT22;49973;52.084;5.412;2023-06-14T11:48:42;30.70;66.80
61912;DHT22;49973;52.084;5.412;2023-06-14T11:51:12;30.70;66.70
61912;DHT22;49973;52.084;5.412;2023-06-14T11:53:42;30.80;66.60
61912;DHT22;49973;52.084;5.412;2023-06-14T11:56:11;30.80;66.40
61912;DHT22;49973;52.084;5.412;2023-06-14T11:58:44;30.90;66.20
61912;DHT22;49973;52.084;5.412;2023-06-14T12:01:16;30.90;66.20
61912;DHT22;49973;52.084;5.412;2023-06-14T12:03:49;31.10;66.00
61912;DHT22;49973;52.084;5.412;2023-06-14T12:06:26;31.20;65.80
61912;DHT22;49973;52.084;5.412;2023-06-14T12:08:57;31.30;65.90
61912;DHT22;49973;52.084;5.412;2023-06-14T12:11:31;31.50;65.90
61912;DHT22;49973;52.084;5.412;2023-06-14T12:14:00;31.70;65.60
61912;DHT22;49973;52.084;5.412;2023-06-14T12:16:33;31.80;65.50
61912;DHT22;49973;52.084;5.412;2023-06-14T12:19:12;32.00;65.40
61912;DHT22;49973;52.084;5.412;2023-06-14T12:21:42;32.10;65.10
61912;DHT22;49973;52.084;5.412;2023-06-14T12:24:12;32.30;65.20
61912;DHT22;49973;52.084;5.412;2023-06-14T12:26:42;32.40;65.00
61912;DHT22;49973;52.084;5.412;2023-06-14T12:29:10;32.60;64.90
61912;DHT22;49973;52.084;5.412;2023-06-14T12:31:41;32.60;64.80
61912;DHT22;49973;52.084;5.412;2023-06-14T12:34:11;32.70;64.50
61912;DHT22;49973;52.084;5.412;2023-06-14T12:36:40;32.70;64.40
61912;DHT22;49973;52.084;5.412;2023-06-14T12:39:12;32.70;64.20
61912;DHT22;49973;52.084;5.412;2023-06-14T12:41:41;32.80;64.90
61912;DHT22;49973;52.084;5.412;2023-06-14T12:44:10;33.00;64.10
61912;DHT22;49973;52.084;5.412;2023-06-14T12:46:39;33.00;64.00
61912;DHT22;49973;52.084;5.412;2023-06-14T12:49:11;32.90;63.80
61912;DHT22;49973;52.084;5.412;2023-06-14T12:51:40;32.90;63.80
61912;DHT22;49973;52.084;5.412;2023-06-14T12:54:09;32.90;63.70
61912;DHT22;49973;52.084;5.412;2023-06-14T12:56:37;32.90;63.70
61912;DHT22;49973;52.084;5.412;2023-06-14T12:59:06;32.90;63.70
61912;DHT22;49973;52.084;5.412;2023-06-14T13:01:37;33.00;63.70
61912;DHT22;49973;52.084;5.412;2023-06-14T13:04:06;33.00;63.60
61912;DHT22;49973;52.084;5.412;2023-06-14T13:06:36;33.10;63.20
61912;DHT22;49973;52.084;5.412;2023-06-14T13:09:05;33.00;62.90
61912;DHT22;49973;52.084;5.412;2023-06-14T13:11:36;32.90;62.80
61912;DHT22;49973;52.084;5.412;2023-06-14T13:14:05;32.70;62.90
61912;DHT22;49973;52.084;5.412;2023-06-14T13:16:52;32.60;62.70
61912;DHT22;49973;52.084;5.412;2023-06-14T13:19:21;32.40;62.60
61912;DHT22;49973;52.084;5.412;2023-06-14T13:21:51;32.30;62.50
61912;DHT22;49973;52.084;5.412;2023-06-14T13:24:19;32.10;62.30
61912;DHT22;49973;52.084;5.412;2023-06-14T13:26:48;32.00;62.20
61912;DHT22;49973;52.084;5.412;2023-06-14T13:29:17;31.80;62.10
61912;DHT22;49973;52.084;5.412;2023-06-14T13:31:45;31.60;62.00
61912;DHT22;49973;52.084;5.412;2023-06-14T13:34:14;31.40;61.90
61912;DHT22;49973;52.084;5.412;2023-06-14T13:36:43;31.30;61.90
61912;DHT22;49973;52.084;5.412;2023-06-14T13:39:13;31.10;62.00
61912;DHT22;49973;52.084;5.412;2023-06-14T13:41:41;31.00;62.20
61912;DHT22;49973;52.084;5.412;2023-06-14T13:44:10;30.90;62.10
61912;DHT22;49973;52.084;5.412;2023-06-14T13:46:44;30.70;62.00
61912;DHT22;49973;52.084;5.412;2023-06-14T13:49:13;30.60;61.90
61912;DHT22;49973;52.084;5.412;2023-06-14T13:51:41;30.50;61.90
61912;DHT22;49973;52.084;5.412;2023-06-14T13:54:14;30.30;61.80
61912;DHT22;49973;52.084;5.412;2023-06-14T13:56:42;30.10;61.90
61912;DHT22;49973;52.084;5.412;2023-06-14T13:59:11;30.00;62.60
61912;DHT22;49973;52.084;5.412;2023-06-14T14:01:40;29.90;61.80
61912;DHT22;49973;52.084;5.412;2023-06-14T14:04:12;29.80;61.60
61912;DHT22;49973;52.084;5.412;2023-06-14T14:06:41;29.70;61.50
61912;DHT22;49973;52.084;5.412;2023-06-14T14:09:10;29.60;61.60
61912;DHT22;49973;52.084;5.412;2023-06-14T14:11:40;29.40;61.40
61912;DHT22;49973;52.084;5.412;2023-06-14T14:14:09;29.30;61.40
61912;DHT22;49973;52.084;5.412;2023-06-14T14:16:38;29.30;61.40
61912;DHT22;49973;52.084;5.412;2023-06-14T14:19:07;29.20;61.40
61912;DHT22;49973;52.084;5.412;2023-06-14T14:21:36;29.10;61.40
61912;DHT22;49973;52.084;5.412;2023-06-14T14:24:05;29.00;61.50
61912;DHT22;49973;52.084;5.412;2023-06-14T14:26:34;29.00;61.30
61912;DHT22;49973;52.084;5.412;2023-06-14T14:29:04;28.90;61.20
61912;DHT22;49973;52.084;5.412;2023-06-14T14:31:33;28.90;61.30
61912;DHT22;49973;52.084;5.412;2023-06-14T14:34:02;28.80;61.20
61912;DHT22;49973;52.084;5.412;2023-06-14T14:36:31;28.70;61.20
61912;DHT22;49973;52.084;5.412;2023-06-14T14:39:00;28.70;61.20
61912;DHT22;49973;52.084;5.412;2023-06-14T14:41:29;28.60;61.20
61912;DHT22;49973;52.084;5.412;2023-06-14T14:44:00;28.50;61.10
61912;DHT22;49973;52.084;5.412;2023-06-14T14:46:31;28.40;61.20
61912;DHT22;49973;52.084;5.412;2023-06-14T14:49:00;28.40;61.20
61912;DHT22;49973;52.084;5.412;2023-06-14T14:51:28;28.30;61.10
61912;DHT22;49973;52.084;5.412;2023-06-14T14:53:57;28.30;61.20
61912;DHT22;49973;52.084;5.412;2023-06-14T14:56:26;28.20;61.10
61912;DHT22;49973;52.084;5.412;2023-06-14T14:58:55;28.10;61.00
61912;DHT22;49973;52.084;5.412;2023-06-14T15:01:23;28.00;61.00
61912;DHT22;49973;52.084;5.412;2023-06-14T15:03:53;28.00;61.10
61912;DHT22;49973;52.084;5.412;2023-06-14T15:06:26;27.90;61.00
61912;DHT22;49973;52.084;5.412;2023-06-14T15:08:55;27.80;61.00
61912;DHT22;49973;52.084;5.412;2023-06-14T15:11:24;27.80;60.90
61912;DHT22;49973;52.084;5.412;2023-06-14T15:13:54;27.70;60.90
61912;DHT22;49973;52.084;5.412;2023-06-14T15:16:23;27.60;60.90
61912;DHT22;49973;52.084;5.412;2023-06-14T15:18:53;27.60;61.00
61912;DHT22;49973;52.084;5.412;2023-06-14T15:21:22;27.50;61.00
61912;DHT22;49973;52.084;5.412;2023-06-14T15:23:51;27.50;60.90
61912;DHT22;49973;52.084;5.412;2023-06-14T15:26:20;27.50;61.00
61912;DHT22;49973;52.084;5.412;2023-06-14T15:28:51;27.40;61.00
61912;DHT22;49973;52.084;5.412;2023-06-14T15:31:20;27.40;61.10
61912;DHT22;49973;52.084;5.412;2023-06-14T15:33:52;27.40;61.20
61912;DHT22;49973;52.084;5.412;2023-06-14T15:36:21;27.40;61.10
61912;DHT22;49973;52.084;5.412;2023-06-14T15:38:49;27.40;61.20
61912;DHT22;49973;52.084;5.412;2023-06-14T15:41:18;27.30;61.20
61912;DHT22;49973;52.084;5.412;2023-06-14T15:43:47;27.30;61.30
61912;DHT22;49973;52.084;5.412;2023-06-14T15:46:16;27.30;61.40
61912;DHT22;49973;52.084;5.412;2023-06-14T15:48:45;27.30;61.40
61912;DHT22;49973;52.084;5.412;2023-06-14T15:51:15;27.20;61.20
61912;DHT22;49973;52.084;5.412;2023-06-14T15:53:44;27.20;61.30